Time;durP1;ratioP1;P1;durP2;ratioP2;P2;SDS_P1;SDS_P2;PMS_P1;PMS_P2;Temp;Humidity;BMP_temperature;BMP_pressure;BME280_temperature;BME280_humidity;BME280_pressure;Samples;Min_cycle;Max_cycle;Signal;HPM_P1;HPM_P2
2023/07/21 00:01:41;;;;;;;3.30;1.80;;;16.80;1.00;;;;;;5016511;28;21032;-73
2023/07/21 00:04:08;;;;;;;2.40;1.50;;;16.80;1.00;;;;;;5001713;28;20466;-74
2023/07/21 00:06:35;;;;;;;2.73;1.80;;;16.80;1.00;;;;;;4999903;28;20504;-74
2023/07/21 00:09:05;;;;;;;1.70;1.50;;;16.80;1.00;;;;;;5006159;28;20462;-74
2023/07/21 00:11:33;;;;;;;3.00;1.77;;;16.70;1.00;;;;;;5001195;28;20903;-75
2023/07/21 00:14:01;;;;;;;3.10;1.90;;;16.70;1.00;;;;;;5004062;28;20486;-74
2023/07/21 00:16:29;;;;;;;2.87;2.00;;;16.70;1.00;;;;;;5004655;28;20872;-74
2023/07/21 00:18:56;;;;;;;2.33;1.53;;;16.70;1.00;;;;;;5004330;28;20473;-74
2023/07/21 00:21:24;;;;;;;5.40;1.90;;;16.70;1.00;;;;;;4999165;28;21840;-73
2023/07/21 00:23:51;;;;;;;1.93;1.60;;;16.60;1.00;;;;;;5005571;28;20606;-74
2023/07/21 00:26:19;;;;;;;3.27;1.77;;;16.50;1.00;;;;;;5005964;28;20557;-74
2023/07/21 00:28:46;;;;;;;3.60;1.97;;;16.40;1.00;;;;;;5004719;28;20494;-74
2023/07/21 00:31:14;;;;;;;2.20;1.93;;;16.40;1.00;;;;;;5003576;28;20497;-73
2023/07/21 00:33:41;;;;;;;2.57;2.17;;;16.30;1.00;;;;;;5008677;28;20572;-75
2023/07/21 00:36:12;;;;;;;3.90;2.37;;;16.20;1.00;;;;;;5006157;28;20613;-74
2023/07/21 00:38:40;;;;;;;3.90;2.60;;;16.20;1.00;;;;;;5005077;28;20478;-74
2023/07/21 00:41:07;;;;;;;2.77;2.00;;;16.10;1.00;;;;;;5004958;28;20544;-76
2023/07/21 00:43:34;;;;;;;4.33;2.00;;;16.00;1.00;;;;;;5006284;28;20477;-74
2023/07/21 00:46:01;;;;;;;3.23;2.00;;;16.10;1.00;;;;;;5007268;28;20633;-74
2023/07/21 00:48:30;;;;;;;2.60;1.90;;;16.00;1.00;;;;;;5005308;28;20481;-74
2023/07/21 00:50:57;;;;;;;3.60;2.23;;;15.90;1.00;;;;;;5005378;28;21280;-74
2023/07/21 00:53:25;;;;;;;3.97;2.43;;;15.80;1.00;;;;;;5005436;28;20504;-74
2023/07/21 00:55:52;;;;;;;7.83;3.00;;;15.80;1.00;;;;;;5002926;28;20853;-74
2023/07/21 00:58:22;;;;;;;3.47;2.80;;;15.80;1.00;;;;;;5004965;28;20945;-74
2023/07/21 01:00:48;;;;;;;3.07;2.40;;;15.70;1.00;;;;;;5004189;28;20469;-72
2023/07/21 01:05:55;;;;;;;3.17;2.50;;;15.60;1.00;;;;;;4630206;22;20567;-79
2023/07/21 01:08:24;;;;;;;3.87;2.23;;;15.70;1.00;;;;;;5026989;28;20493;-80
2023/07/21 01:10:53;;;;;;;3.03;2.47;;;15.60;1.00;;;;;;5028629;28;20979;-80
2023/07/21 01:13:22;;;;;;;3.60;2.97;;;15.60;1.00;;;;;;5027826;28;20444;-80
2023/07/21 01:15:53;;;;;;;5.67;5.13;;;15.60;1.00;;;;;;5028568;28;20460;-80
2023/07/21 01:18:21;;;;;;;8.70;7.10;;;15.60;1.00;;;;;;5031500;28;20592;-79
2023/07/21 01:20:51;;;;;;;5.50;2.80;;;15.60;1.00;;;;;;5031627;28;20476;-80
2023/07/21 01:23:28;;;;;;;3.37;2.67;;;15.50;1.00;;;;;;5031250;28;20479;-80
2023/07/21 01:25:59;;;;;;;2.97;2.73;;;15.50;1.00;;;;;;5024034;28;20594;-80
2023/07/21 01:28:40;;;;;;;4.83;2.80;;;15.50;1.00;;;;;;5029906;28;20461;-80
2023/07/21 01:31:08;;;;;;;6.03;3.03;;;15.50;1.00;;;;;;5019284;28;20906;-80
2023/07/21 01:33:35;;;;;;;4.33;3.07;;;15.50;1.00;;;;;;5029438;28;20485;-81
2023/07/21 01:36:05;;;;;;;6.60;3.93;;;15.40;1.00;;;;;;5029629;28;20465;-80
2023/07/21 01:38:33;;;;;;;4.40;2.57;;;15.40;1.00;;;;;;5034428;28;20486;-80
2023/07/21 01:41:04;;;;;;;3.47;2.33;;;15.30;1.00;;;;;;5033235;28;20544;-80
2023/07/21 01:43:31;;;;;;;6.40;3.20;;;15.30;1.00;;;;;;5027297;28;20507;-80
2023/07/21 01:45:58;;;;;;;4.40;3.03;;;15.20;1.00;;;;;;5029744;28;20468;-79
2023/07/21 01:48:26;;;;;;;5.00;4.30;;;15.20;1.00;;;;;;5016155;28;20508;-79
2023/07/21 01:50:56;;;;;;;7.43;3.60;;;15.20;1.00;;;;;;5031196;28;20941;-81
2023/07/21 01:53:28;;;;;;;4.37;3.17;;;15.20;1.00;;;;;;5029049;28;21456;-80
2023/07/21 01:56:02;;;;;;;3.10;2.67;;;15.20;1.00;;;;;;5027924;28;20469;-80
2023/07/21 01:58:34;;;;;;;3.10;2.77;;;15.10;1.00;;;;;;5030278;28;20451;-80
2023/07/21 02:01:03;;;;;;;3.53;3.03;;;15.10;1.00;;;;;;5029743;28;21008;-81
2023/07/21 02:03:30;;;;;;;3.37;2.47;;;15.10;1.00;;;;;;5029356;28;20475;-81
2023/07/21 02:05:57;;;;;;;3.87;3.00;;;15.10;1.00;;;;;;5030760;28;20458;-80
2023/07/21 02:08:24;;;;;;;3.70;2.70;;;15.00;1.00;;;;;;5030360;28;20466;-81
2023/07/21 02:10:53;;;;;;;3.17;2.80;;;15.00;1.00;;;;;;5030477;28;20549;-81
2023/07/21 02:13:21;;;;;;;4.60;3.13;;;15.00;1.00;;;;;;5027690;28;20522;-80
2023/07/21 02:15:48;;;;;;;4.73;3.00;;;14.90;1.00;;;;;;5031053;28;20434;-80
2023/07/21 02:18:15;;;;;;;3.30;3.00;;;14.90;1.00;;;;;;5028893;28;20558;-79
2023/07/21 02:20:42;;;;;;;3.20;2.90;;;14.80;1.00;;;;;;5026869;28;20526;-80
2023/07/21 02:23:09;;;;;;;7.37;3.27;;;14.80;1.00;;;;;;5036818;28;20581;-80
2023/07/21 02:25:36;;;;;;;4.23;2.97;;;14.80;1.00;;;;;;5039498;28;21226;-80
2023/07/21 02:28:05;;;;;;;4.07;3.47;;;14.80;1.00;;;;;;5035592;28;20556;-80
2023/07/21 02:30:33;;;;;;;3.33;2.97;;;14.80;1.00;;;;;;5037032;28;20527;-79
2023/07/21 02:33:00;;;;;;;4.00;3.60;;;14.70;1.00;;;;;;5019529;28;20533;-80
2023/07/21 02:35:28;;;;;;;4.97;3.50;;;14.70;1.00;;;;;;5036704;28;20480;-80
2023/07/21 02:37:57;;;;;;;8.57;4.20;;;14.70;1.00;;;;;;5036856;28;21198;-80
2023/07/21 02:40:26;;;;;;;4.00;3.70;;;14.70;1.00;;;;;;5040122;28;20467;-80
2023/07/21 02:42:57;;;;;;;3.90;3.33;;;14.70;1.00;;;;;;5036558;28;20499;-80
2023/07/21 02:45:24;;;;;;;4.60;4.20;;;14.60;1.00;;;;;;5024174;28;20483;-80
2023/07/21 02:47:53;;;;;;;4.07;3.67;;;14.60;1.00;;;;;;5037808;28;20448;-80
2023/07/21 02:50:23;;;;;;;4.30;3.60;;;14.60;1.00;;;;;;5031419;28;20548;-80
2023/07/21 02:52:50;;;;;;;4.60;3.40;;;14.50;1.00;;;;;;5038503;28;20976;-79
2023/07/21 02:55:17;;;;;;;6.17;3.70;;;14.50;1.00;;;;;;5020964;28;21046;-80
2023/07/21 02:57:44;;;;;;;5.00;3.83;;;14.40;1.00;;;;;;5038318;28;20498;-79
2023/07/21 03:00:15;;;;;;;4.30;3.90;;;14.40;1.00;;;;;;5035883;28;20461;-80
2023/07/21 03:02:43;;;;;;;6.10;4.27;;;14.40;1.00;;;;;;5037428;28;20459;-81
2023/07/21 03:05:14;;;;;;;8.53;4.10;;;14.40;1.00;;;;;;5037025;28;20470;-80
2023/07/21 03:07:45;;;;;;;6.47;4.33;;;14.40;1.00;;;;;;5031455;28;20565;-76
2023/07/21 03:10:12;;;;;;;6.07;3.83;;;14.30;1.00;;;;;;5035636;28;21077;-75
2023/07/21 03:12:39;;;;;;;5.47;3.93;;;14.30;1.00;;;;;;5035880;28;20992;-75
2023/07/21 03:15:08;;;;;;;7.03;3.93;;;14.30;1.00;;;;;;5033094;28;20525;-76
2023/07/21 03:17:35;;;;;;;6.07;4.60;;;14.20;1.00;;;;;;5037303;28;20948;-76
2023/07/21 03:20:29;;;;;;;4.83;3.70;;;14.30;1.00;;;;;;5027744;28;21116;-75
2023/07/21 03:22:57;;;;;;;5.73;3.83;;;14.30;1.00;;;;;;5029932;28;20503;-77
2023/07/21 03:25:26;;;;;;;4.30;3.90;;;14.30;1.00;;;;;;5030854;28;20884;-77
2023/07/21 03:27:53;;;;;;;6.63;4.43;;;14.30;1.00;;;;;;5033234;28;20855;-76
2023/07/21 03:30:20;;;;;;;5.00;4.50;;;14.30;1.00;;;;;;5029019;28;20479;-77
2023/07/21 03:32:50;;;;;;;5.17;4.03;;;14.30;1.00;;;;;;5032519;28;20531;-76
2023/07/21 03:35:18;;;;;;;7.03;4.23;;;14.30;1.00;;;;;;5027517;28;20590;-78
2023/07/21 03:37:46;;;;;;;4.43;4.03;;;14.30;1.00;;;;;;5027583;28;20523;-76
2023/07/21 03:40:14;;;;;;;8.73;3.90;;;14.30;1.00;;;;;;5029174;28;20502;-75
2023/07/21 03:42:41;;;;;;;4.97;4.20;;;14.30;1.00;;;;;;5027304;28;20882;-76
2023/07/21 03:45:09;;;;;;;6.37;4.70;;;14.30;1.00;;;;;;5015148;28;20522;-76
2023/07/21 03:47:38;;;;;;;16.07;8.53;;;14.30;1.00;;;;;;5026437;28;20525;-76
2023/07/21 03:50:11;;;;;;;12.10;5.03;;;14.30;1.00;;;;;;5027132;28;20550;-76
2023/07/21 03:52:40;;;;;;;6.53;5.20;;;14.40;1.00;;;;;;5029038;28;20481;-77
2023/07/21 03:55:12;;;;;;;6.77;4.70;;;14.40;1.00;;;;;;5029962;28;20461;-77
2023/07/21 03:57:39;;;;;;;5.10;4.20;;;14.40;1.00;;;;;;5026854;28;20486;-76
2023/07/21 04:00:08;;;;;;;5.50;4.20;;;14.40;1.00;;;;;;5027260;28;20467;-76
2023/07/21 04:02:36;;;;;;;5.23;4.10;;;14.40;1.00;;;;;;5024087;28;21230;-78
2023/07/21 04:05:03;;;;;;;5.50;4.60;;;14.40;1.00;;;;;;5019380;28;21073;-75
2023/07/21 04:07:31;;;;;;;6.43;4.80;;;14.40;1.00;;;;;;4984467;28;20843;-76
2023/07/21 04:09:58;;;;;;;5.20;3.83;;;14.40;1.00;;;;;;4985284;28;20469;-77
2023/07/21 04:12:28;;;;;;;4.80;3.63;;;14.40;1.00;;;;;;4981900;28;20568;-75
2023/07/21 04:14:56;;;;;;;5.03;4.50;;;14.40;1.00;;;;;;4980769;28;20458;-76
2023/07/21 04:17:25;;;;;;;6.70;4.50;;;14.30;1.00;;;;;;4985743;28;20525;-74
2023/07/21 04:19:57;;;;;;;7.83;4.93;;;14.40;1.00;;;;;;4985864;28;20533;-76
2023/07/21 04:22:25;;;;;;;4.80;3.80;;;14.40;1.00;;;;;;4982822;28;20464;-75
2023/07/21 04:24:53;;;;;;;7.17;6.37;;;14.40;1.00;;;;;;4995046;28;20493;-76
2023/07/21 04:27:23;;;;;;;4.40;4.00;;;14.40;1.00;;;;;;4983697;28;20550;-76
2023/07/21 04:29:52;;;;;;;7.13;4.93;;;14.50;1.00;;;;;;4995656;28;20886;-76
2023/07/21 04:32:19;;;;;;;7.30;5.07;;;14.50;1.00;;;;;;4987420;28;20990;-76
2023/07/21 04:34:49;;;;;;;7.90;3.97;;;14.50;1.00;;;;;;4987208;28;20437;-77
2023/07/21 04:37:16;;;;;;;5.70;4.40;;;14.60;1.00;;;;;;4990543;28;20545;-77
2023/07/21 04:39:44;;;;;;;4.40;4.00;;;14.70;1.00;;;;;;4991315;28;20919;-76
2023/07/21 04:42:11;;;;;;;6.03;4.30;;;14.70;1.00;;;;;;4987757;28;20498;-76
2023/07/21 04:44:38;;;;;;;5.20;4.07;;;14.70;1.00;;;;;;4981610;28;20461;-77
2023/07/21 04:47:08;;;;;;;5.43;4.93;;;14.90;1.00;;;;;;4993922;28;20469;-77
2023/07/21 04:49:35;;;;;;;5.10;3.93;;;15.10;1.00;;;;;;4986203;28;20465;-79
2023/07/21 04:52:03;;;;;;;5.60;4.70;;;15.30;1.00;;;;;;4984540;28;20498;-80
2023/07/21 04:54:31;;;;;;;8.97;5.30;;;15.50;1.00;;;;;;4986823;28;20478;-79
2023/07/21 04:57:01;;;;;;;5.30;4.80;;;15.60;1.00;;;;;;4982424;28;20506;-79
2023/07/21 04:59:32;;;;;;;6.30;5.80;;;15.80;1.00;;;;;;4986155;28;21074;-80
2023/07/21 05:02:00;;;;;;;9.10;6.90;;;15.90;1.00;;;;;;4988853;28;20561;-79
2023/07/21 05:04:31;;;;;;;8.50;6.73;;;16.10;1.00;;;;;;4985055;28;20502;-81
2023/07/21 05:06:58;;;;;;;7.57;6.97;;;16.10;1.00;;;;;;5015606;28;22036;-80
2023/07/21 05:09:25;;;;;;;7.57;6.87;;;16.10;1.00;;;;;;5023352;28;20452;-79
2023/07/21 05:11:53;;;;;;;7.80;7.00;;;16.10;1.00;;;;;;5028036;28;21015;-80
2023/07/21 05:14:22;;;;;;;8.47;7.07;;;16.20;1.00;;;;;;5024502;28;20463;-76
2023/07/21 05:16:50;;;;;;;8.80;6.97;;;16.40;1.00;;;;;;5025645;28;20959;-77
2023/07/21 05:19:19;;;;;;;7.70;7.00;;;16.60;1.00;;;;;;5033558;28;20841;-77
2023/07/21 05:21:51;;;;;;;7.63;6.93;;;16.60;1.00;;;;;;5031956;28;20469;-78
2023/07/21 05:24:18;;;;;;;7.57;6.77;;;16.70;1.00;;;;;;5031315;28;20536;-77
2023/07/21 05:26:47;;;;;;;7.67;6.80;;;16.70;1.00;;;;;;5030093;28;20528;-77
2023/07/21 05:29:14;;;;;;;9.83;6.20;;;16.80;1.00;;;;;;5030344;28;20567;-78
2023/07/21 05:31:44;;;;;;;5.90;5.40;;;16.80;1.00;;;;;;5025485;28;20997;-79
2023/07/21 05:34:11;;;;;;;7.73;5.20;;;16.80;1.00;;;;;;5035235;28;20568;-78
2023/07/21 05:36:38;;;;;;;6.00;4.77;;;16.90;1.00;;;;;;5031771;28;20568;-78
2023/07/21 05:39:08;;;;;;;6.30;5.03;;;16.90;1.00;;;;;;5029627;28;20461;-78
2023/07/21 05:41:36;;;;;;;6.83;4.93;;;16.90;1.00;;;;;;5028794;28;20477;-75
2023/07/21 05:44:08;;;;;;;7.47;5.53;;;17.00;1.00;;;;;;5028467;28;20454;-76
2023/07/21 05:46:38;;;;;;;6.90;5.60;;;17.10;1.00;;;;;;5026698;28;21135;-74
2023/07/21 05:49:06;;;;;;;4.93;4.30;;;17.10;1.00;;;;;;5027886;28;20815;-76
2023/07/21 05:51:33;;;;;;;4.60;4.20;;;17.10;1.00;;;;;;5034275;28;20975;-74
2023/07/21 05:54:03;;;;;;;4.90;4.40;;;17.20;1.00;;;;;;5029616;28;20866;-76
2023/07/21 05:56:33;;;;;;;7.33;5.17;;;17.30;1.00;;;;;;5009751;28;20987;-75
2023/07/21 05:59:03;;;;;;;5.70;5.13;;;17.30;1.00;;;;;;5026490;28;20943;-76
2023/07/21 06:01:34;;;;;;;10.53;4.87;;;17.50;1.00;;;;;;5021445;28;20965;-76
2023/07/21 06:04:01;;;;;;;5.20;4.30;;;17.60;1.00;;;;;;5027170;28;20470;-76
2023/07/21 06:06:29;;;;;;;5.40;4.43;;;17.70;1.00;;;;;;5024890;28;20547;-76
2023/07/21 06:08:56;;;;;;;7.40;4.23;;;17.70;1.00;;;;;;5029892;28;20932;-76
2023/07/21 06:11:23;;;;;;;4.60;4.20;;;17.80;1.00;;;;;;5021473;28;21063;-75
2023/07/21 06:13:54;;;;;;;5.23;4.83;;;17.90;1.00;;;;;;5029904;28;20484;-76
2023/07/21 06:16:24;;;;;;;4.83;4.43;;;17.90;1.00;;;;;;5022570;28;20454;-76
2023/07/21 06:18:53;;;;;;;5.20;4.50;;;17.90;1.00;;;;;;5025777;28;20536;-76
2023/07/21 06:21:23;;;;;;;6.47;5.87;;;17.90;1.00;;;;;;5019935;28;20893;-77
2023/07/21 06:23:51;;;;;;;6.20;5.60;;;17.90;1.00;;;;;;5028563;28;20919;-75
2023/07/21 06:26:20;;;;;;;9.63;6.00;;;18.00;1.00;;;;;;5026765;28;21319;-75
2023/07/21 06:28:51;;;;;;;8.27;6.13;;;17.90;1.00;;;;;;5025482;28;20481;-75
2023/07/21 06:31:19;;;;;;;6.90;5.90;;;17.90;1.00;;;;;;5025610;28;20481;-76
2023/07/21 06:33:46;;;;;;;7.87;6.07;;;17.90;1.00;;;;;;5025669;28;20587;-75
2023/07/21 06:36:13;;;;;;;10.33;6.40;;;18.10;1.00;;;;;;5025853;28;20469;-79
2023/07/21 06:38:40;;;;;;;11.40;10.30;;;18.10;1.00;;;;;;5024284;28;20457;-76
2023/07/21 06:41:07;;;;;;;7.00;6.40;;;18.00;1.00;;;;;;5017180;28;20531;-74
2023/07/21 06:43:34;;;;;;;7.87;7.10;;;17.80;1.00;;;;;;5026424;28;20470;-76
2023/07/21 06:46:03;;;;;;;9.10;6.70;;;17.90;1.00;;;;;;5029015;28;20462;-75
2023/07/21 06:48:34;;;;;;;9.43;7.23;;;18.00;1.00;;;;;;5032058;28;20468;-77
2023/07/21 06:51:01;;;;;;;8.73;8.00;;;18.10;1.00;;;;;;5026952;28;20505;-76
2023/07/21 06:53:31;;;;;;;12.53;9.37;;;18.20;1.00;;;;;;5033562;28;20466;-76
2023/07/21 06:56:00;;;;;;;8.47;6.63;;;18.10;1.00;;;;;;5022503;28;20506;-76
2023/07/21 06:58:28;;;;;;;10.77;9.70;;;18.10;1.00;;;;;;5027655;28;20524;-76
2023/07/21 07:00:57;;;;;;;9.77;7.20;;;18.10;1.00;;;;;;5022112;28;20540;-77
2023/07/21 07:03:26;;;;;;;8.20;6.50;;;18.20;1.00;;;;;;5028603;28;20461;-76
2023/07/21 07:05:56;;;;;;;6.70;6.10;;;18.30;1.00;;;;;;5010583;28;20472;-76
2023/07/21 07:08:24;;;;;;;6.13;5.53;;;18.40;1.00;;;;;;5028600;28;20457;-76
2023/07/21 07:10:54;;;;;;;6.13;5.50;;;18.50;1.00;;;;;;5030366;28;20972;-76
2023/07/21 07:13:21;;;;;;;7.80;5.80;;;18.60;1.00;;;;;;5029529;28;20534;-75
2023/07/21 07:15:50;;;;;;;6.17;5.57;;;18.70;1.00;;;;;;5031510;28;20461;-76
2023/07/21 07:18:18;;;;;;;10.63;6.23;;;18.60;1.00;;;;;;5022612;28;20462;-76
2023/07/21 07:20:53;;;;;;;6.53;5.80;;;18.70;1.00;;;;;;5037980;28;20474;-78
2023/07/21 07:23:22;;;;;;;10.43;6.13;;;18.70;1.00;;;;;;5020215;28;20458;-77
2023/07/21 07:25:51;;;;;;;6.57;4.70;;;18.70;1.00;;;;;;5015240;28;20624;-76
2023/07/21 07:28:20;;;;;;;6.70;5.10;;;18.60;1.00;;;;;;5027876;28;20856;-77
2023/07/21 07:30:48;;;;;;;6.07;4.67;;;18.50;1.00;;;;;;5029899;28;20895;-77
2023/07/21 07:33:15;;;;;;;4.73;4.33;;;18.40;1.00;;;;;;5030290;28;20457;-76
2023/07/21 07:35:49;;;;;;;5.40;4.47;;;18.20;1.00;;;;;;5020204;28;20574;-77
2023/07/21 07:38:21;;;;;;;5.60;4.13;;;18.20;1.00;;;;;;5022144;28;20547;-77
2023/07/21 07:40:52;;;;;;;8.10;5.00;;;18.40;1.00;;;;;;5033382;28;20497;-79
2023/07/21 07:43:22;;;;;;;4.80;4.40;;;18.60;1.00;;;;;;5011072;28;20943;-76
2023/07/21 07:45:50;;;;;;;7.03;4.23;;;19.00;1.00;;;;;;5032484;28;20464;-77
2023/07/21 07:48:18;;;;;;;6.10;4.07;;;19.30;1.00;;;;;;5024083;28;20465;-77
2023/07/21 07:50:44;;;;;;;7.60;4.83;;;19.50;1.00;;;;;;5032862;28;20561;-77
2023/07/21 07:53:14;;;;;;;10.60;4.57;;;19.80;1.00;;;;;;5032081;28;20954;-76
2023/07/21 07:55:44;;;;;;;6.20;3.93;;;19.90;1.00;;;;;;5034676;28;20471;-76
2023/07/21 07:58:14;;;;;;;3.70;3.40;;;20.00;1.00;;;;;;5030340;28;20488;-77
2023/07/21 08:00:43;;;;;;;6.00;3.73;;;20.20;1.00;;;;;;5028720;28;20493;-77
2023/07/21 08:03:11;;;;;;;8.00;3.87;;;20.30;1.00;;;;;;5031972;28;20445;-77
2023/07/21 08:05:40;;;;;;;6.87;3.13;;;20.40;1.00;;;;;;5034069;28;20480;-78
2023/07/21 08:08:08;;;;;;;7.30;3.37;;;20.50;1.00;;;;;;5048045;22;20480;-78
2023/07/21 08:10:36;;;;;;;6.93;3.20;;;20.70;1.00;;;;;;5044963;28;21011;-75
2023/07/21 08:13:05;;;;;;;4.27;2.60;;;20.60;1.00;;;;;;5042867;28;20452;-74
2023/07/21 08:15:33;;;;;;;6.13;3.40;;;20.60;1.00;;;;;;5043328;28;20586;-78
2023/07/21 08:18:01;;;;;;;3.07;2.77;;;20.60;1.00;;;;;;5044196;28;20641;-76
2023/07/21 08:20:28;;;;;;;2.80;2.57;;;20.60;1.00;;;;;;5046849;28;20468;-74
2023/07/21 08:22:55;;;;;;;4.67;2.47;;;20.60;1.00;;;;;;5041924;28;20941;-74
2023/07/21 08:25:22;;;;;;;9.03;3.10;;;20.50;1.00;;;;;;5042675;28;20485;-74
2023/07/21 08:27:50;;;;;;;2.57;2.37;;;20.60;1.00;;;;;;5043607;28;20475;-75
2023/07/21 08:30:17;;;;;;;5.63;2.70;;;20.70;1.00;;;;;;5042716;28;20498;-76
2023/07/21 08:32:46;;;;;;;7.40;5.30;;;21.00;1.00;;;;;;5043015;28;20469;-74
2023/07/21 08:35:13;;;;;;;6.80;2.73;;;21.40;1.00;;;;;;5042739;28;20532;-71
2023/07/21 08:37:40;;;;;;;5.20;3.10;;;21.50;1.00;;;;;;5037666;28;21093;-74
2023/07/21 08:40:09;;;;;;;3.83;1.70;;;21.70;1.00;;;;;;5040846;28;20476;-74
2023/07/21 08:42:37;;;;;;;5.10;2.30;;;21.70;1.00;;;;;;5039707;28;20453;-74
2023/07/21 08:45:05;;;;;;;2.20;1.80;;;21.90;1.00;;;;;;5045959;28;20475;-75
2023/07/21 08:47:33;;;;;;;2.83;2.00;;;22.00;1.00;;;;;;5041450;28;20474;-75
2023/07/21 08:50:02;;;;;;;2.07;1.87;;;22.10;1.00;;;;;;5043672;28;21018;-75
2023/07/21 08:52:29;;;;;;;5.67;2.23;;;22.10;1.00;;;;;;5046179;28;21186;-78
2023/07/21 08:54:56;;;;;;;6.07;2.43;;;21.90;1.00;;;;;;5047537;28;20465;-75
2023/07/21 08:57:24;;;;;;;3.47;2.07;;;21.80;1.00;;;;;;5041383;28;20457;-77
2023/07/21 08:59:55;;;;;;;2.53;1.70;;;21.50;1.00;;;;;;5042546;28;20837;-74
2023/07/21 09:02:37;;;;;;;5.60;2.00;;;21.20;1.00;;;;;;5038841;28;20445;-74
2023/07/21 09:05:06;;;;;;;4.27;2.00;;;21.10;1.00;;;;;;5045237;28;21076;-73
2023/07/21 09:07:35;;;;;;;6.03;2.40;;;21.30;1.00;;;;;;5044235;28;20457;-74
2023/07/21 09:10:03;;;;;;;5.77;2.50;;;21.40;1.00;;;;;;5014842;28;20952;-75
2023/07/21 09:12:36;;;;;;;4.50;2.40;;;21.60;1.00;;;;;;5036115;28;21078;-73
2023/07/21 09:15:10;;;;;;;5.37;2.80;;;21.70;1.00;;;;;;5025344;28;20522;-75
2023/07/21 09:17:42;;;;;;;6.23;2.43;;;21.60;1.00;;;;;;5025426;28;20450;-75
2023/07/21 09:20:12;;;;;;;3.13;1.80;;;21.30;1.00;;;;;;5024450;28;20475;-76
2023/07/21 09:22:40;;;;;;;6.43;2.43;;;21.20;1.00;;;;;;5027015;28;20538;-77
2023/07/21 09:25:09;;;;;;;5.97;2.10;;;21.10;1.00;;;;;;5025825;28;20478;-75
2023/07/21 09:27:39;;;;;;;5.70;2.67;;;21.10;1.00;;;;;;5022862;28;20507;-77
2023/07/21 09:30:08;;;;;;;3.63;2.00;;;21.30;1.00;;;;;;5020667;28;20496;-76
2023/07/21 09:32:42;;;;;;;3.13;2.20;;;21.60;1.00;;;;;;5024921;28;20644;-77
2023/07/21 09:35:11;;;;;;;3.17;2.60;;;21.70;1.00;;;;;;5022589;28;20458;-75
2023/07/21 09:37:39;;;;;;;2.47;1.97;;;21.80;1.00;;;;;;5016564;28;20994;-76
2023/07/21 09:40:09;;;;;;;3.60;2.40;;;21.90;1.00;;;;;;5025469;28;20551;-77
2023/07/21 09:42:38;;;;;;;9.80;8.80;;;21.80;1.00;;;;;;5025932;28;21206;-75
2023/07/21 09:45:08;;;;;;;2.53;1.97;;;21.90;1.00;;;;;;5021537;28;20473;-80
2023/07/21 09:47:35;;;;;;;1.93;1.83;;;22.20;1.00;;;;;;5025168;28;20979;-79
2023/07/21 09:50:03;;;;;;;7.10;2.40;;;22.40;1.00;;;;;;5020933;28;20475;-79
2023/07/21 09:52:39;;;;;;;2.90;1.90;;;22.80;1.00;;;;;;5025036;28;20468;-79
2023/07/21 09:55:10;;;;;;;3.27;2.13;;;23.30;1.00;;;;;;5025485;28;20468;-77
2023/07/21 09:57:43;;;;;;;1.93;1.70;;;23.80;1.00;;;;;;5022594;28;20464;-78
2023/07/21 10:00:14;;;;;;;2.30;2.10;;;24.50;1.00;;;;;;5023940;28;20568;-78
2023/07/21 10:02:42;;;;;;;8.90;2.53;;;24.80;1.00;;;;;;5023535;28;20459;-79
2023/07/21 10:05:13;;;;;;;2.60;2.17;;;25.00;1.00;;;;;;5024060;28;20499;-78
2023/07/21 10:07:43;;;;;;;4.13;2.13;;;25.10;1.00;;;;;;5018484;28;20933;-77
2023/07/21 10:10:11;;;;;;;3.67;2.37;;;24.90;1.00;;;;;;5033213;28;20573;-76
2023/07/21 10:12:43;;;;;;;4.20;2.80;;;24.70;1.00;;;;;;5038530;28;20448;-80
2023/07/21 10:15:15;;;;;;;6.23;2.80;;;24.40;1.00;;;;;;5040792;28;20521;-78
2023/07/21 10:17:54;;;;;;;2.23;1.50;;;24.20;1.00;;;;;;5038874;28;20810;-80
2023/07/21 10:20:22;;;;;;;5.23;2.70;;;24.00;1.00;;;;;;5041826;28;20456;-80
2023/07/21 10:22:58;;;;;;;3.20;2.30;;;24.00;1.00;;;;;;5044018;28;20462;-78
2023/07/21 10:25:26;;;;;;;6.43;2.37;;;23.60;1.00;;;;;;5042331;28;20972;-75
2023/07/21 10:28:03;;;;;;;4.23;2.47;;;23.50;1.00;;;;;;5041989;28;20588;-77
2023/07/21 10:30:30;;;;;;;6.03;3.43;;;23.40;1.00;;;;;;5044626;28;20480;-77
2023/07/21 10:33:12;;;;;;;3.00;2.20;;;23.70;1.00;;;;;;5042631;28;20465;-77
2023/07/21 10:35:41;;;;;;;4.30;2.20;;;23.90;1.00;;;;;;5041814;28;20964;-77
2023/07/21 10:38:24;;;;;;;2.90;1.77;;;24.10;1.00;;;;;;5041584;28;20494;-77
2023/07/21 10:40:51;;;;;;;3.40;1.57;;;24.50;1.00;;;;;;5041869;28;20563;-77
2023/07/21 10:43:19;;;;;;;1.80;1.57;;;24.80;1.00;;;;;;5042753;28;20471;-76
2023/07/21 10:45:54;;;;;;;4.10;2.10;;;25.00;1.00;;;;;;5045348;28;21408;-76
2023/07/21 10:48:25;;;;;;;4.27;2.37;;;25.20;1.00;;;;;;5044964;28;20994;-78
2023/07/21 10:50:56;;;;;;;3.33;2.30;;;25.00;1.00;;;;;;5040290;28;20534;-76
2023/07/21 10:53:28;;;;;;;5.73;3.37;;;25.10;1.00;;;;;;5041372;28;20547;-79
2023/07/21 10:55:56;;;;;;;2.70;1.90;;;25.30;1.00;;;;;;5039844;28;20484;-75
2023/07/21 10:58:23;;;;;;;2.13;1.80;;;25.90;1.00;;;;;;5045321;28;20503;-75
2023/07/21 11:00:52;;;;;;;2.90;2.17;;;26.40;1.00;;;;;;5039487;28;20512;-78
2023/07/21 11:03:20;;;;;;;4.80;3.87;;;26.80;1.00;;;;;;5033191;28;20583;-76
2023/07/21 11:05:47;;;;;;;2.27;2.07;;;26.70;1.00;;;;;;5042497;28;20601;-78
2023/07/21 11:08:29;;;;;;;4.17;3.00;;;26.40;1.00;;;;;;5041664;28;20474;-77
2023/07/21 11:10:56;;;;;;;2.07;1.87;;;25.80;1.00;;;;;;5043521;28;20470;-77
2023/07/21 11:13:24;;;;;;;3.70;3.20;;;25.30;1.00;;;;;;5043254;28;20557;-77
2023/07/21 11:15:55;;;;;;;6.37;2.27;;;24.70;1.00;;;;;;5038324;28;20540;-78
2023/07/21 11:18:23;;;;;;;2.10;1.83;;;24.20;1.00;;;;;;5041299;28;20927;-77
2023/07/21 11:20:51;;;;;;;3.60;2.47;;;23.90;1.00;;;;;;5039224;28;20493;-76
2023/07/21 11:23:19;;;;;;;5.30;2.30;;;23.80;1.00;;;;;;5044324;28;20621;-79
2023/07/21 11:26:04;;;;;;;2.93;2.20;;;23.80;1.00;;;;;;5039978;28;20522;-79
2023/07/21 11:28:32;;;;;;;5.33;2.20;;;24.00;1.00;;;;;;5041819;28;20488;-79
2023/07/21 11:31:01;;;;;;;4.83;1.83;;;23.90;1.00;;;;;;5046769;28;20478;-79
2023/07/21 11:33:43;;;;;;;4.57;2.80;;;23.90;1.00;;;;;;5048615;28;20457;-80
2023/07/21 11:36:17;;;;;;;6.03;2.20;;;23.90;1.00;;;;;;5045409;28;20967;-79
2023/07/21 11:38:58;;;;;;;8.67;6.80;;;23.80;1.00;;;;;;5047575;28;20463;-79
2023/07/21 11:41:45;;;;;;;2.83;2.20;;;23.60;1.00;;;;;;5044485;28;21096;-79
2023/07/21 11:44:17;;;;;;;6.33;2.83;;;23.40;1.00;;;;;;5027778;28;20532;-81
2023/07/21 11:46:59;;;;;;;7.13;2.47;;;23.30;1.00;;;;;;5045233;28;20551;-79
2023/07/21 11:49:28;;;;;;;2.77;2.20;;;23.20;1.00;;;;;;5046640;28;20464;-79
2023/07/21 11:51:59;;;;;;;5.73;2.83;;;23.00;1.00;;;;;;5049365;28;20755;-78
2023/07/21 11:54:28;;;;;;;3.90;2.60;;;22.80;1.00;;;;;;5043255;28;20462;-79
2023/07/21 11:57:00;;;;;;;3.90;2.70;;;22.50;1.00;;;;;;5051069;28;20461;-79
2023/07/21 11:59:30;;;;;;;5.30;2.80;;;22.40;1.00;;;;;;5046975;28;20538;-79
2023/07/21 12:01:57;;;;;;;5.17;3.00;;;22.40;1.00;;;;;;5042766;28;20562;-79
2023/07/21 12:04:25;;;;;;;3.50;2.67;;;22.30;1.00;;;;;;5025496;28;20452;-79
2023/07/21 12:06:53;;;;;;;3.97;3.07;;;22.40;1.00;;;;;;5047254;28;20475;-79
2023/07/21 12:09:20;;;;;;;10.70;3.73;;;22.40;1.00;;;;;;5042637;28;20482;-84
2023/07/21 12:11:50;;;;;;;2.83;2.20;;;22.30;1.00;;;;;;5047564;28;20474;-79
2023/07/21 12:14:19;;;;;;;3.43;2.53;;;22.20;1.00;;;;;;5042478;28;20473;-79
2023/07/21 12:16:47;;;;;;;2.40;2.20;;;22.20;1.00;;;;;;5047384;28;20460;-79
2023/07/21 12:19:14;;;;;;;5.73;3.07;;;22.10;1.00;;;;;;5048183;28;20425;-79
2023/07/21 12:21:42;;;;;;;2.60;2.37;;;22.10;1.00;;;;;;5041067;28;20472;-79
2023/07/21 12:24:08;;;;;;;6.80;3.20;;;22.20;1.00;;;;;;5043486;28;20561;-79
2023/07/21 12:26:39;;;;;;;2.43;2.10;;;22.20;1.00;;;;;;5044649;28;20577;-78
2023/07/21 12:29:05;;;;;;;2.87;2.30;;;22.20;1.00;;;;;;5042110;28;20484;-78
2023/07/21 12:31:35;;;;;;;6.20;2.37;;;22.10;1.00;;;;;;5047104;28;20498;-78
2023/07/21 12:34:02;;;;;;;3.20;2.20;;;22.00;1.00;;;;;;5025155;28;20978;-79
2023/07/21 12:36:30;;;;;;;3.10;2.17;;;22.00;1.00;;;;;;5043563;28;20465;-78
2023/07/21 12:38:58;;;;;;;5.93;2.20;;;21.90;1.00;;;;;;5047154;28;20478;-78
2023/07/21 12:41:25;;;;;;;2.50;2.30;;;21.80;1.00;;;;;;5042296;28;20480;-78
2023/07/21 12:43:52;;;;;;;2.80;1.90;;;21.90;1.00;;;;;;5043131;28;20515;-79
2023/07/21 12:46:19;;;;;;;3.87;2.37;;;22.00;1.00;;;;;;5046736;28;20461;-80
2023/07/21 12:48:48;;;;;;;3.03;2.17;;;21.90;1.00;;;;;;5048998;28;20481;-78
2023/07/21 12:51:14;;;;;;;2.37;2.17;;;21.80;1.00;;;;;;5044722;28;20462;-78
2023/07/21 12:53:42;;;;;;;2.40;2.20;;;21.50;1.00;;;;;;5039495;28;20481;-78
2023/07/21 12:56:09;;;;;;;2.70;2.00;;;21.40;1.00;;;;;;5040605;28;20490;-78
2023/07/21 12:58:36;;;;;;;5.17;2.57;;;21.30;1.00;;;;;;5034578;28;20563;-80
2023/07/21 13:01:05;;;;;;;2.20;2.00;;;21.40;1.00;;;;;;5041466;28;20846;-78
2023/07/21 13:03:34;;;;;;;2.00;1.90;;;21.50;1.00;;;;;;5041798;28;20986;-79
2023/07/21 13:06:02;;;;;;;2.53;2.33;;;21.70;1.00;;;;;;5044331;28;20549;-78
2023/07/21 13:08:29;;;;;;;2.30;2.10;;;21.80;1.00;;;;;;5043880;28;20564;-78
2023/07/21 13:10:57;;;;;;;3.30;2.20;;;22.00;1.00;;;;;;5042840;28;20854;-79